Terminal Aerodrome Forecast
Issued by NWS Jackson, MS

Home | Current Version | Previous Version | Text Only | Print | Product List | Glossary On
Versions: 1 2 3 4 5 6 7 8 9 10 11 12
000
FTUS44 KMEG 022343
TAFTUP
TAF
KTUP 022343Z 0300/0324 06004KT P6SM VCSH SCT050 BKN250
     FM030100 00000KT P6SM SCT070 BKN250
      TEMPO 0308/0312 4SM BR
     FM031400 04005KT P6SM SCT040=

USA.gov is the U.S. government's official web portal to all federal, state and local government web resources and services.